sensor_id;sensor_type;location;lat;lon;timestamp;temperature;humidity
76838;DHT22;65797;47.352;8.164;2023-05-10T09:44:23;14.80;99.90
76838;DHT22;65797;47.352;8.164;2023-05-10T09:46:50;14.50;99.90
76838;DHT22;65797;47.352;8.164;2023-05-10T09:49:18;14.60;99.90
76838;DHT22;65797;47.352;8.164;2023-05-10T09:51:45;14.70;99.90
76838;DHT22;65797;47.352;8.164;2023-05-10T09:54:14;14.60;99.90
76838;DHT22;65797;47.352;8.164;2023-05-10T09:56:41;14.70;99.90
76838;DHT22;65797;47.352;8.164;2023-05-10T09:59:11;14.50;99.90
76838;DHT22;65797;47.352;8.164;2023-05-10T10:01:38;14.50;99.90
76838;DHT22;65797;47.352;8.164;2023-05-10T10:42:53;17.10;99.90
76838;DHT22;65797;47.352;8.164;2023-05-10T10:45:19;17.20;99.90
76838;DHT22;65797;47.352;8.164;2023-05-10T10:47:45;16.90;99.90
76838;DHT22;65797;47.352;8.164;2023-05-10T10:50:11;16.70;99.90
76838;DHT22;65797;47.352;8.164;2023-05-10T10:52:45;16.60;99.90
76838;DHT22;65797;47.352;8.164;2023-05-10T10:57:48;16.90;99.90
76838;DHT22;65797;47.352;8.164;2023-05-10T11:07:56;16.90;99.90
76838;DHT22;65797;47.352;8.164;2023-05-10T11:10:22;16.60;99.90
76838;DHT22;65797;47.352;8.164;2023-05-10T11:17:59;16.40;99.90
76838;DHT22;65797;47.352;8.164;2023-05-10T11:20:32;16.70;99.90
76838;DHT22;65797;47.352;8.164;2023-05-10T11:25:43;16.90;99.90
76838;DHT22;65797;47.352;8.164;2023-05-10T11:28:12;17.30;99.90
76838;DHT22;65797;47.352;8.164;2023-05-10T11:35:49;18.50;99.90
76838;DHT22;65797;47.352;8.164;2023-05-10T11:38:15;18.70;99.90
76838;DHT22;65797;47.352;8.164;2023-05-10T11:40:41;18.90;99.90
76838;DHT22;65797;47.352;8.164;2023-05-10T12:03:51;19.40;99.90
76838;DHT22;65797;47.352;8.164;2023-05-10T12:06:19;19.20;99.90
76838;DHT22;65797;47.352;8.164;2023-05-10T12:21:41;18.30;99.90
76838;DHT22;65797;47.352;8.164;2023-05-10T12:24:07;18.30;99.90
76838;DHT22;65797;47.352;8.164;2023-05-10T13:05:23;19.50;99.90
76838;DHT22;65797;47.352;8.164;2023-05-10T13:07:49;19.20;99.90
76838;DHT22;65797;47.352;8.164;2023-05-10T13:10:16;19.10;99.90
76838;DHT22;65797;47.352;8.164;2023-05-10T13:12:41;19.20;99.90
76838;DHT22;65797;47.352;8.164;2023-05-10T13:17:43;19.40;99.90
76838;DHT22;65797;47.352;8.164;2023-05-10T13:20:10;19.30;99.90
76838;DHT22;65797;47.352;8.164;2023-05-10T13:22:36;18.90;99.90
76838;DHT22;65797;47.352;8.164;2023-05-10T13:25:02;18.60;99.90
76838;DHT22;65797;47.352;8.164;2023-05-10T13:27:28;18.50;99.90
76838;DHT22;65797;47.352;8.164;2023-05-10T13:29:54;18.70;99.90
76838;DHT22;65797;47.352;8.164;2023-05-10T13:32:20;18.80;99.90
76838;DHT22;65797;47.352;8.164;2023-05-10T13:34:46;18.40;99.90
76838;DHT22;65797;47.352;8.164;2023-05-10T13:37:12;18.60;99.90
76838;DHT22;65797;47.352;8.164;2023-05-10T13:39:38;18.50;99.90
76838;DHT22;65797;47.352;8.164;2023-05-10T13:42:04;18.40;99.90
76838;DHT22;65797;47.352;8.164;2023-05-10T13:44:30;18.20;99.90
76838;DHT22;65797;47.352;8.164;2023-05-10T13:46:56;18.30;99.90
76838;DHT22;65797;47.352;8.164;2023-05-10T13:49:22;18.30;99.90
76838;DHT22;65797;47.352;8.164;2023-05-10T13:51:48;18.50;99.90
76838;DHT22;65797;47.352;8.164;2023-05-10T13:54:13;18.50;99.90
76838;DHT22;65797;47.352;8.164;2023-05-10T13:56:41;18.40;99.90
76838;DHT22;65797;47.352;8.164;2023-05-10T14:01:41;18.60;99.90
76838;DHT22;65797;47.352;8.164;2023-05-10T14:04:08;18.50;99.90
76838;DHT22;65797;47.352;8.164;2023-05-10T14:09:10;17.70;99.90
76838;DHT22;65797;47.352;8.164;2023-05-10T14:11:36;17.60;99.90
76838;DHT22;65797;47.352;8.164;2023-05-10T14:14:02;17.80;99.90
76838;DHT22;65797;47.352;8.164;2023-05-10T14:16:28;17.60;99.90
76838;DHT22;65797;47.352;8.164;2023-05-10T14:18:53;17.50;99.90
76838;DHT22;65797;47.352;8.164;2023-05-10T14:52:31;13.40;99.90
76838;DHT22;65797;47.352;8.164;2023-05-10T19:08:04;13.20;1.00
76838;DHT22;65797;47.352;8.164;2023-05-10T20:35:05;11.70;1.00
76838;DHT22;65797;47.352;8.164;2023-05-10T21:57:58;11.30;99.90
76838;DHT22;65797;47.352;8.164;2023-05-10T22:00:24;11.30;99.90
76838;DHT22;65797;47.352;8.164;2023-05-10T22:02:49;11.30;37.50
76838;DHT22;65797;47.352;8.164;2023-05-10T22:05:17;11.30;99.90
76838;DHT22;65797;47.352;8.164;2023-05-10T22:07:55;11.30;1.00
76838;DHT22;65797;47.352;8.164;2023-05-10T22:10:21;11.30;1.00
76838;DHT22;65797;47.352;8.164;2023-05-10T22:12:54;11.30;1.00
76838;DHT22;65797;47.352;8.164;2023-05-10T22:15:20;11.30;1.00
76838;DHT22;65797;47.352;8.164;2023-05-10T22:17:46;11.30;1.00
76838;DHT22;65797;47.352;8.164;2023-05-10T22:20:12;11.20;1.00
76838;DHT22;65797;47.352;8.164;2023-05-10T22:23:04;11.30;99.90
76838;DHT22;65797;47.352;8.164;2023-05-10T22:25:30;11.30;58.90
76838;DHT22;65797;47.352;8.164;2023-05-10T22:27:59;11.30;1.00
76838;DHT22;65797;47.352;8.164;2023-05-10T22:30:33;11.30;51.50
76838;DHT22;65797;47.352;8.164;2023-05-10T22:32:59;11.30;84.90
76838;DHT22;65797;47.352;8.164;2023-05-10T22:35:25;11.20;99.90
76838;DHT22;65797;47.352;8.164;2023-05-10T22:37:51;11.30;99.90
76838;DHT22;65797;47.352;8.164;2023-05-10T22:40:17;11.30;99.90
76838;DHT22;65797;47.352;8.164;2023-05-10T22:42:43;11.30;99.90
76838;DHT22;65797;47.352;8.164;2023-05-10T22:45:09;11.30;99.90
76838;DHT22;65797;47.352;8.164;2023-05-10T22:47:35;11.30;99.90
76838;DHT22;65797;47.352;8.164;2023-05-10T22:50:00;11.30;99.90
76838;DHT22;65797;47.352;8.164;2023-05-10T22:52:29;11.30;1.00
76838;DHT22;65797;47.352;8.164;2023-05-10T22:54:55;11.30;99.90
76838;DHT22;65797;47.352;8.164;2023-05-10T22:57:21;11.30;99.90
76838;DHT22;65797;47.352;8.164;2023-05-10T22:59:47;11.30;99.90
76838;DHT22;65797;47.352;8.164;2023-05-10T23:02:16;11.30;99.90
76838;DHT22;65797;47.352;8.164;2023-05-10T23:04:42;11.30;32.30
76838;DHT22;65797;47.352;8.164;2023-05-10T23:07:07;11.30;99.90
76838;DHT22;65797;47.352;8.164;2023-05-10T23:09:33;11.30;99.90
76838;DHT22;65797;47.352;8.164;2023-05-10T23:11:59;11.30;99.90
76838;DHT22;65797;47.352;8.164;2023-05-10T23:14:25;11.20;93.00
76838;DHT22;65797;47.352;8.164;2023-05-10T23:16:50;11.20;99.90
76838;DHT22;65797;47.352;8.164;2023-05-10T23:19:16;11.20;1.00
76838;DHT22;65797;47.352;8.164;2023-05-10T23:21:42;11.20;1.00
76838;DHT22;65797;47.352;8.164;2023-05-10T23:24:08;11.20;99.90
76838;DHT22;65797;47.352;8.164;2023-05-10T23:26:33;11.20;99.90
76838;DHT22;65797;47.352;8.164;2023-05-10T23:29:00;11.20;10.40
76838;DHT22;65797;47.352;8.164;2023-05-10T23:31:26;11.20;1.00
76838;DHT22;65797;47.352;8.164;2023-05-10T23:33:52;11.20;11.20
76838;DHT22;65797;47.352;8.164;2023-05-10T23:36:18;11.20;38.00
76838;DHT22;65797;47.352;8.164;2023-05-10T23:38:44;11.20;99.90
76838;DHT22;65797;47.352;8.164;2023-05-10T23:41:10;11.20;99.90
76838;DHT22;65797;47.352;8.164;2023-05-10T23:43:35;11.20;41.40
76838;DHT22;65797;47.352;8.164;2023-05-10T23:46:01;11.20;1.00
76838;DHT22;65797;47.352;8.164;2023-05-10T23:48:29;11.10;1.00
76838;DHT22;65797;47.352;8.164;2023-05-10T23:50:55;11.10;1.00
76838;DHT22;65797;47.352;8.164;2023-05-10T23:53:20;11.20;1.00
76838;DHT22;65797;47.352;8.164;2023-05-10T23:55:46;11.20;1.00
76838;DHT22;65797;47.352;8.164;2023-05-10T23:58:12;11.20;1.00
